Weather at Akron Airport/Jesson Field

Public forecast

Using degrees Fahrenheit for public forecast. Weather courtesy of forecast.io.

Closest aviation weather report (METAR) to Akron Airport/Jesson Field

Closest report is Buffalo Niagara International Airport, 12.0 nm (22.2 km) WSW. Retrieved 2020/11/24 16:54 UTC (17 minutes ago):

KBUF 241654Z VRB05KT 10SM FEW020 BKN028 OVC040 02/M03 A3037 RMK AO2 SLP294 T00221028

Closest aviation forecast (TAF) to Akron Airport/Jesson Field

Closest forecast is Buffalo Niagara International Airport, 12.0 nm (22.2 km) WSW. Retrieved 2020/11/24 12:30 UTC (5 hours ago):

TAF KBUF 241129Z 2412/2512 32006KT P6SM OVC015 FM241500 36006KT P6SM BKN025 FM241900 07006KT P6SM SCT040 FM250100 12008KT P6SM BKN120 FM250300 13008KT P6SM VCSH OVC060